Time,TemperatureF,DewpointF,PressureIn,WindDirection,WindDirectionDegrees,WindSpeedMPH,WindSpeedGustMPH,Humidity,HourlyPrecipIn,Conditions,Clouds,dailyrainin,SoftwareType,DateUTC
2013-02-18 00:00:00,31.3,30.0,30.06,SW,225,0.0,0.0,95,0.00,RA,,0.00,WeatherDisplay:10.37,2013-02-18 08:00:00,
2013-02-18 00:05:00,31.5,30.5,30.06,SW,225,1.1,0.0,96,0.00,RA,,0.00,WeatherDisplay:10.37,2013-02-18 08:05:00,
2013-02-18 00:10:00,31.3,30.3,30.06,SW,225,1.1,0.0,96,0.00,CLR,,0.00,WeatherDisplay:10.37,2013-02-18 08:10:00,
2013-02-18 00:15:00,31.3,30.3,30.06,SW,225,0.0,0.0,96,0.00,CLR,,0.00,WeatherDisplay:10.37,2013-02-18 08:15:00,
2013-02-18 00:20:00,31.1,30.1,30.06,SW,225,1.1,0.0,96,0.00,CLR,,0.00,WeatherDisplay:10.37,2013-02-18 08:20:00,
2013-02-18 00:25:00,31.1,30.1,30.06,SW,225,0.0,0.0,96,0.00,CLR,,0.00,WeatherDisplay:10.37,2013-02-18 08:25:00,
2013-02-18 00:30:00,30.9,29.9,30.05,SW,225,0.0,0.0,96,0.00,CLR,,0.00,WeatherDisplay:10.37,2013-02-18 08:30:00,
2013-02-18 00:35:00,30.7,29.7,30.05,SW,225,0.0,0.0,96,0.00,CLR,,0.00,WeatherDisplay:10.37,2013-02-18 08:35:00,
2013-02-18 00:41:00,30.7,29.7,30.05,SW,225,1.1,0.0,96,0.00,CLR,,0.00,WeatherDisplay:10.37,2013-02-18 08:41:00,
2013-02-18 00:45:00,30.6,29.6,30.05,SW,225,0.0,0.0,96,0.00,CLR,,0.00,WeatherDisplay:10.37,2013-02-18 08:45:00,
2013-02-18 00:51:00,30.6,29.6,30.05,SW,225,0.0,0.0,96,0.00,CLR,,0.00,WeatherDisplay:10.37,2013-02-18 08:51:00,
2013-02-18 00:56:00,30.4,29.4,30.05,SW,225,0.0,0.0,96,0.00,CLR,,0.00,WeatherDisplay:10.37,2013-02-18 08:56:00,
2013-02-18 01:01:00,30.4,29.4,30.05,SW,225,0.0,0.0,96,0.00,CLR,,0.00,WeatherDisplay:10.37,2013-02-18 09:01:00,
2013-02-18 01:06:00,30.4,29.4,30.05,SW,225,0.0,0.0,96,0.00,CLR,,0.00,WeatherDisplay:10.37,2013-02-18 09:06:00,
2013-02-18 01:11:00,30.6,29.6,30.06,SW,225,1.1,0.0,96,0.00,CLR,,0.00,WeatherDisplay:10.37,2013-02-18 09:11:00,
2013-02-18 01:16:00,30.6,29.6,30.05,SW,225,0.0,0.0,96,0.00,CLR,,0.00,WeatherDisplay:10.37,2013-02-18 09:16:00,
2013-02-18 01:21:00,30.6,29.6,30.06,SW,225,0.0,0.0,96,0.00,CLR,,0.00,WeatherDisplay:10.37,2013-02-18 09:21:00,
2013-02-18 01:26:00,30.7,29.7,30.06,SW,225,2.3,2.3,96,0.00,CLR,,0.00,WeatherDisplay:10.37,2013-02-18 09:26:00,
2013-02-18 01:31:00,30.7,30.0,30.06,SW,225,0.0,0.0,97,0.00,CLR,,0.00,WeatherDisplay:10.37,2013-02-18 09:31:00,
2013-02-18 01:36:00,30.7,30.0,30.06,SW,225,1.1,0.0,97,0.00,CLR,,0.00,WeatherDisplay:10.37,2013-02-18 09:36:00,
2013-02-18 01:41:00,30.9,30.2,30.06,SW,225,0.0,0.0,97,0.00,CLR,,0.00,WeatherDisplay:10.37,2013-02-18 09:41:00,
2013-02-18 01:46:00,31.1,30.3,30.05,West,270,0.0,0.0,97,0.00,CLR,,0.00,WeatherDisplay:10.37,2013-02-18 09:46:00,
2013-02-18 01:51:00,31.3,30.5,30.05,West,270,0.0,0.0,97,0.00,CLR,,0.00,WeatherDisplay:10.37,2013-02-18 09:51:00,
2013-02-18 01:56:00,31.5,30.7,30.05,NW,315,0.0,0.0,97,0.00,CLR,,0.00,WeatherDisplay:10.37,2013-02-18 09:56:00,
2013-02-18 02:01:00,31.6,30.9,30.05,West,270,0.0,0.0,97,0.00,CLR,,0.00,WeatherDisplay:10.37,2013-02-18 10:01:00,
2013-02-18 02:06:00,31.5,30.7,30.05,West,270,0.0,0.0,97,0.00,CLR,,0.00,WeatherDisplay:10.37,2013-02-18 10:06:00,
2013-02-18 02:11:00,31.5,30.7,30.06,SW,225,0.0,0.0,97,0.00,CLR,,0.00,WeatherDisplay:10.37,2013-02-18 10:11:00,
2013-02-18 02:16:00,31.5,30.7,30.06,SW,225,0.0,0.0,97,0.00,CLR,,0.00,WeatherDisplay:10.37,2013-02-18 10:16:00,
2013-02-18 02:21:00,31.5,30.7,30.05,SW,225,0.0,0.0,97,0.00,CLR,,0.00,WeatherDisplay:10.37,2013-02-18 10:21:00,
2013-02-18 02:26:00,31.6,30.9,30.06,SW,225,0.0,0.0,97,0.00,CLR,,0.00,WeatherDisplay:10.37,2013-02-18 10:26:00,
2013-02-18 02:31:00,31.5,30.7,30.05,SW,225,0.0,0.0,97,0.00,CLR,,0.00,WeatherDisplay:10.37,2013-02-18 10:31:00,
2013-02-18 02:36:00,31.6,30.9,30.05,SW,225,0.0,0.0,97,0.00,CLR,,0.00,WeatherDisplay:10.37,2013-02-18 10:36:00,
2013-02-18 02:41:00,31.8,31.1,30.05,SW,225,0.0,0.0,97,0.00,CLR,,0.00,WeatherDisplay:10.37,2013-02-18 10:41:00,
2013-02-18 02:46:00,31.8,31.1,30.04,SW,225,0.0,0.0,97,0.00,CLR,,0.00,WeatherDisplay:10.37,2013-02-18 10:46:00,
2013-02-18 02:51:00,31.8,31.1,30.04,SW,225,0.0,0.0,97,0.00,CLR,,0.00,WeatherDisplay:10.37,2013-02-18 10:51:00,
2013-02-18 02:56:00,31.8,31.1,30.04,SW,225,0.0,0.0,97,0.00,CLR,,0.00,WeatherDisplay:10.37,2013-02-18 10:56:00,
2013-02-18 03:01:00,31.8,31.1,30.03,SW,225,0.0,0.0,97,0.00,CLR,,0.00,WeatherDisplay:10.37,2013-02-18 11:01:00,
2013-02-18 03:06:00,31.8,31.1,30.03,West,270,1.1,0.0,97,0.00,CLR,,0.00,WeatherDisplay:10.37,2013-02-18 11:06:00,
2013-02-18 03:11:00,31.6,30.9,30.03,West,270,0.0,0.0,97,0.00,CLR,,0.00,WeatherDisplay:10.37,2013-02-18 11:11:00,
2013-02-18 03:17:00,31.6,30.9,30.03,West,270,0.0,0.0,97,0.00,CLR,,0.00,WeatherDisplay:10.37,2013-02-18 11:17:00,
2013-02-18 08:21:00,35.6,35.1,30.03,NE,45,1.1,0.0,98,0.00,CLR,,0.00,WeatherDisplay:10.37,2013-02-18 16:21:00,
2013-02-18 08:28:00,36.3,35.8,30.03,West,270,1.2,0.0,98,0.00,CLR,,0.00,WeatherDisplay:10.37,2013-02-18 16:28:00,
2013-02-18 08:33:00,36.7,36.4,30.03,North,0,1.2,1.2,99,0.00,CLR,,0.00,WeatherDisplay:10.37,2013-02-18 16:33:00,
2013-02-18 08:39:00,37.0,36.8,30.03,NE,45,2.3,2.3,99,0.00,CLR,,0.00,WeatherDisplay:10.37,2013-02-18 16:39:00,
2013-02-18 08:44:00,37.0,36.8,30.03,NE,45,1.2,1.2,99,0.00,CLR,,0.00,WeatherDisplay:10.37,2013-02-18 16:44:00,
2013-02-18 08:49:00,37.0,36.5,30.03,NE,45,2.3,2.3,98,0.00,CLR,,0.00,WeatherDisplay:10.37,2013-02-18 16:49:00,
2013-02-18 08:54:00,37.2,36.7,30.03,NE,45,2.3,0.0,98,0.00,CLR,,0.00,WeatherDisplay:10.37,2013-02-18 16:54:00,
2013-02-18 08:59:00,37.4,36.9,30.03,NE,45,1.2,0.0,98,0.00,CLR,,0.00,WeatherDisplay:10.37,2013-02-18 16:59:00,
2013-02-18 09:05:00,37.6,37.1,30.03,North,0,1.2,0.0,98,0.00,CLR,,0.00,WeatherDisplay:10.37,2013-02-18 17:05:00,
2013-02-18 09:10:00,37.9,37.4,30.03,East,90,2.3,2.3,98,0.00,CLR,,0.00,WeatherDisplay:10.37,2013-02-18 17:10:00,
2013-02-18 09:15:00,38.3,38.0,30.03,NE,45,1.6,1.6,99,0.00,CLR,,0.00,WeatherDisplay:10.37,2013-02-18 17:15:00,
2013-02-18 09:20:00,38.7,38.1,30.04,North,0,1.2,1.2,98,0.00,CLR,,0.00,WeatherDisplay:10.37,2013-02-18 17:20:00,
2013-02-18 09:25:00,38.7,38.1,30.03,NE,45,2.3,2.3,98,0.00,CLR,,0.00,WeatherDisplay:10.37,2013-02-18 17:25:00,
2013-02-18 09:30:00,39.0,38.5,30.04,NE,45,1.2,0.0,98,0.00,CLR,,0.00,WeatherDisplay:10.37,2013-02-18 17:30:00,
2013-02-18 09:35:00,39.2,38.7,30.03,NE,45,1.2,0.0,98,0.00,CLR,,0.00,WeatherDisplay:10.37,2013-02-18 17:35:00,
2013-02-18 09:40:00,39.4,38.9,30.03,NE,45,2.3,2.3,98,0.00,CLR,,0.00,WeatherDisplay:10.37,2013-02-18 17:40:00,
2013-02-18 09:45:00,39.6,38.8,30.03,NE,45,3.5,3.5,97,0.00,CLR,,0.00,WeatherDisplay:10.37,2013-02-18 17:45:00,
2013-02-18 09:50:00,39.9,39.1,30.03,NE,45,2.3,2.3,97,0.00,CLR,,0.00,WeatherDisplay:10.37,2013-02-18 17:50:00,
2013-02-18 09:55:00,39.9,38.9,30.03,NE,45,3.5,3.5,96,0.00,CLR,,0.00,WeatherDisplay:10.37,2013-02-18 17:55:00,
2013-02-18 10:00:00,40.1,39.1,30.03,NE,45,1.6,1.6,96,0.00,CLR,,0.00,WeatherDisplay:10.37,2013-02-18 18:00:00,
2013-02-18 10:05:00,40.3,39.2,30.03,NE,45,1.2,1.2,96,0.00,CLR,,0.00,WeatherDisplay:10.37,2013-02-18 18:05:00,
2013-02-18 10:10:00,40.6,39.6,30.03,North,0,1.2,0.0,96,0.00,CLR,,0.00,WeatherDisplay:10.37,2013-02-18 18:10:00,
2013-02-18 10:15:00,41.2,40.1,30.02,NW,315,1.2,1.2,96,0.00,CLR,,0.00,WeatherDisplay:10.37,2013-02-18 18:15:00,
2013-02-18 10:20:00,41.5,40.2,30.03,North,0,1.2,0.0,95,0.00,CLR,,0.00,WeatherDisplay:10.37,2013-02-18 18:20:00,
2013-02-18 10:25:00,41.7,40.4,30.02,North,0,0.0,0.0,95,0.00,CLR,,0.00,WeatherDisplay:10.37,2013-02-18 18:25:00,
2013-02-18 10:31:00,41.7,40.1,30.02,SE,135,1.2,0.0,94,0.00,CLR,,0.00,WeatherDisplay:10.37,2013-02-18 18:31:00,
2013-02-18 10:36:00,42.1,40.5,30.02,East,90,0.0,0.0,94,0.00,CLR,,0.00,WeatherDisplay:10.37,2013-02-18 18:36:00,
2013-02-18 10:41:00,43.0,41.4,30.02,South,180,1.2,0.0,94,0.00,CLR,,0.00,WeatherDisplay:10.37,2013-02-18 18:41:00,
2013-02-18 10:46:00,44.6,43.0,30.02,South,180,1.2,0.0,94,0.00,CLR,,0.00,WeatherDisplay:10.37,2013-02-18 18:46:00,
2013-02-18 10:51:00,45.5,42.7,30.01,East,90,2.3,0.0,90,0.00,CLR,,0.00,WeatherDisplay:10.37,2013-02-18 18:51:00,
2013-02-18 10:56:00,45.9,41.9,30.02,SE,135,1.2,1.2,86,0.00,CLR,,0.00,WeatherDisplay:10.37,2013-02-18 18:56:00,
2013-02-18 11:01:00,46.0,40.9,30.01,South,180,1.2,0.0,82,0.00,CLR,,0.00,WeatherDisplay:10.37,2013-02-18 19:01:00,
2013-02-18 11:06:00,46.4,41.2,30.01,SW,225,2.3,0.0,82,0.00,CLR,,0.00,WeatherDisplay:10.37,2013-02-18 19:06:00,
2013-02-18 11:11:00,47.3,41.1,30.01,South,180,4.6,4.6,79,0.00,CLR,,0.00,WeatherDisplay:10.37,2013-02-18 19:11:00,
2013-02-18 11:16:00,47.5,39.9,30.00,South,180,5.8,5.8,75,0.00,CLR,,0.00,WeatherDisplay:10.37,2013-02-18 19:16:00,
2013-02-18 11:21:00,47.1,39.9,30.00,South,180,6.9,6.9,76,0.00,CLR,,0.00,WeatherDisplay:10.37,2013-02-18 19:21:00,
2013-02-18 11:26:00,47.1,39.9,30.00,SSE,158,8.1,8.1,76,0.00,CLR,,0.00,WeatherDisplay:10.37,2013-02-18 19:26:00,
2013-02-18 11:31:00,47.8,40.6,30.00,South,180,5.8,5.8,76,0.00,CLR,,0.00,WeatherDisplay:10.37,2013-02-18 19:31:00,
2013-02-18 11:36:00,49.1,40.8,30.00,South,180,8.1,8.1,73,0.00,CLR,,0.00,WeatherDisplay:10.37,2013-02-18 19:36:00,
2013-02-18 11:41:00,49.5,41.5,30.00,South,180,9.2,9.2,74,0.00,CLR,,0.00,WeatherDisplay:10.37,2013-02-18 19:41:00,
2013-02-18 11:46:00,48.9,40.6,30.00,SW,225,6.9,6.9,73,0.00,CLR,,0.00,WeatherDisplay:10.37,2013-02-18 19:46:00,
2013-02-18 11:52:00,48.9,40.6,30.00,SE,135,8.1,8.1,73,0.00,CLR,,0.00,WeatherDisplay:10.37,2013-02-18 19:52:00,
2013-02-18 11:57:00,48.6,41.0,29.99,South,180,5.8,5.8,75,0.00,CLR,,0.00,WeatherDisplay:10.37,2013-02-18 19:57:00,
2013-02-18 12:02:00,48.4,40.1,29.99,SW,225,8.1,8.1,73,0.00,CLR,,0.00,WeatherDisplay:10.37,2013-02-18 20:02:00,
2013-02-18 12:07:00,47.5,39.9,29.99,South,180,5.8,5.8,75,0.00,CLR,,0.00,WeatherDisplay:10.37,2013-02-18 20:07:00,
2013-02-18 12:12:00,47.3,40.1,29.99,South,180,8.1,8.1,76,0.00,CLR,,0.00,WeatherDisplay:10.37,2013-02-18 20:12:00,
2013-02-18 12:17:00,47.1,40.3,29.99,South,180,6.9,6.9,77,0.00,CLR,,0.00,WeatherDisplay:10.37,2013-02-18 20:17:00,
2013-02-18 12:22:00,47.1,40.6,29.99,South,180,5.8,5.8,78,0.00,CLR,,0.00,WeatherDisplay:10.37,2013-02-18 20:22:00,
2013-02-18 12:27:00,47.3,40.8,29.99,South,180,5.8,5.8,78,0.00,CLR,,0.00,WeatherDisplay:10.37,2013-02-18 20:27:00,
2013-02-18 12:32:00,46.4,39.9,29.99,SW,225,13.8,13.8,78,0.00,CLR,,0.00,WeatherDisplay:10.37,2013-02-18 20:32:00,
2013-02-18 12:37:00,45.5,40.3,29.98,SSW,202,11.5,11.5,82,0.00,CLR,,0.00,WeatherDisplay:10.37,2013-02-18 20:37:00,
2013-02-18 12:42:00,45.3,41.1,29.99,SW,225,8.1,8.1,85,0.00,CLR,,0.00,WeatherDisplay:10.37,2013-02-18 20:42:00,
2013-02-18 12:47:00,45.5,41.3,29.98,South,180,8.1,8.1,85,0.00,CLR,,0.00,WeatherDisplay:10.37,2013-02-18 20:47:00,
2013-02-18 12:52:00,45.9,41.3,29.98,SW,225,12.7,12.7,84,0.00,CLR,,0.00,WeatherDisplay:10.37,2013-02-18 20:52:00,
2013-02-18 12:57:00,46.2,41.7,29.97,SE,135,6.9,6.9,84,0.00,CLR,,0.00,WeatherDisplay:10.37,2013-02-18 20:57:00,
2013-02-18 13:02:00,47.1,41.6,29.97,South,180,5.8,5.8,81,0.00,CLR,,0.00,WeatherDisplay:10.37,2013-02-18 21:02:00,
2013-02-18 13:07:00,48.0,42.1,29.97,SE,135,6.9,6.9,80,0.00,CLR,,0.00,WeatherDisplay:10.37,2013-02-18 21:07:00,
2013-02-18 13:12:00,48.4,41.8,29.97,SW,225,5.8,6.0,78,0.00,CLR,,0.00,WeatherDisplay:10.37,2013-02-18 21:12:00,
2013-02-18 13:17:00,48.2,42.0,29.97,SW,225,10.4,10.4,79,0.00,CLR,,0.00,WeatherDisplay:10.37,2013-02-18 21:17:00,
2013-02-18 13:22:00,48.4,41.8,29.97,SW,225,8.1,8.1,78,0.00,CLR,,0.00,WeatherDisplay:10.37,2013-02-18 21:22:00,
2013-02-18 13:27:00,48.2,41.7,29.97,SW,225,8.1,8.1,78,0.00,CLR,,0.00,WeatherDisplay:10.37,2013-02-18 21:27:00,
2013-02-18 13:32:00,48.4,42.2,29.96,SW,225,7.6,7.6,79,0.00,CLR,,0.00,WeatherDisplay:10.37,2013-02-18 21:32:00,
2013-02-18 13:37:00,48.4,41.8,29.97,South,180,4.6,4.6,78,0.00,CLR,,0.00,WeatherDisplay:10.37,2013-02-18 21:37:00,
2013-02-18 13:42:00,48.7,41.5,29.97,South,180,8.1,8.1,76,0.00,CLR,,0.00,WeatherDisplay:10.37,2013-02-18 21:42:00,
2013-02-18 13:47:00,48.7,41.5,29.96,South,180,9.2,9.2,76,0.00,CLR,,0.00,WeatherDisplay:10.37,2013-02-18 21:47:00,
2013-02-18 13:52:00,48.7,41.2,29.96,SW,225,9.2,9.2,75,0.00,CLR,,0.00,WeatherDisplay:10.37,2013-02-18 21:52:00,
2013-02-18 13:57:00,48.9,40.6,29.96,South,180,10.4,10.4,73,0.00,CLR,,0.00,WeatherDisplay:10.37,2013-02-18 21:57:00,
2013-02-18 14:02:00,49.1,41.2,29.96,SW,225,8.1,8.1,74,0.00,CLR,,0.00,WeatherDisplay:10.37,2013-02-18 22:02:00,
2013-02-18 14:07:00,49.5,41.5,29.95,SW,225,5.8,6.0,74,0.00,CLR,,0.00,WeatherDisplay:10.37,2013-02-18 22:07:00,
2013-02-18 14:12:00,49.5,40.8,29.95,SW,225,8.1,8.1,72,0.00,CLR,,0.00,WeatherDisplay:10.37,2013-02-18 22:12:00,
2013-02-18 14:17:00,49.6,41.0,29.95,WSW,248,8.1,8.1,72,0.00,CLR,,0.00,WeatherDisplay:10.37,2013-02-18 22:17:00,
2013-02-18 14:22:00,50.0,41.0,29.95,SW,225,5.8,5.8,71,0.00,CLR,,0.00,WeatherDisplay:10.37,2013-02-18 22:22:00,
2013-02-18 14:27:00,50.7,40.2,29.95,South,180,11.5,11.5,67,0.00,CLR,,0.00,WeatherDisplay:10.37,2013-02-18 22:27:00,
2013-02-18 14:33:00,50.0,39.8,29.95,SW,225,13.8,13.8,68,0.00,CLR,,0.00,WeatherDisplay:10.37,2013-02-18 22:33:00,
2013-02-18 14:38:00,50.2,40.8,29.94,SW,225,6.9,6.9,70,0.00,CLR,,0.00,WeatherDisplay:10.37,2013-02-18 22:38:00,
2013-02-18 14:43:00,50.5,40.7,29.95,SW,225,8.1,8.1,69,0.00,CLR,,0.00,WeatherDisplay:10.37,2013-02-18 22:43:00,
2013-02-18 14:48:00,50.7,40.2,29.94,South,180,8.1,8.1,67,0.00,CLR,,0.00,WeatherDisplay:10.37,2013-02-18 22:48:00,
2013-02-18 14:53:00,50.4,40.2,29.94,SW,225,10.4,10.4,68,0.00,CLR,,0.00,WeatherDisplay:10.37,2013-02-18 22:53:00,
2013-02-18 14:58:00,49.6,39.5,29.94,SW,225,13.8,13.8,68,0.00,CLR,,0.00,WeatherDisplay:10.37,2013-02-18 22:58:00,
2013-02-18 15:03:00,49.3,39.9,29.94,South,180,12.7,12.7,70,0.00,CLR,,0.00,WeatherDisplay:10.37,2013-02-18 23:03:00,
2013-02-18 15:08:00,49.6,40.3,29.93,SW,225,8.1,8.1,70,0.00,CLR,,0.00,WeatherDisplay:10.37,2013-02-18 23:08:00,
2013-02-18 15:13:00,50.2,40.4,29.93,South,180,11.5,11.5,69,0.00,CLR,,0.00,WeatherDisplay:10.37,2013-02-18 23:13:00,
2013-02-18 15:18:00,49.6,39.9,29.93,SW,225,12.7,12.7,69,0.00,CLR,,0.00,WeatherDisplay:10.37,2013-02-18 23:18:00,
2013-02-18 15:23:00,49.1,40.1,29.93,South,180,8.1,8.1,71,0.00,CLR,,0.00,WeatherDisplay:10.37,2013-02-18 23:23:00,
2013-02-18 15:28:00,49.3,39.5,29.93,South,180,10.4,10.4,69,0.00,CLR,,0.00,WeatherDisplay:10.37,2013-02-18 23:28:00,
2013-02-18 15:33:00,49.5,39.7,29.93,SW,225,15.0,15.0,69,0.00,CLR,,0.00,WeatherDisplay:10.37,2013-02-18 23:33:00,
2013-02-18 15:38:00,49.5,39.7,29.93,South,180,15.0,15.0,69,0.00,CLR,,0.00,WeatherDisplay:10.37,2013-02-18 23:38:00,
2013-02-18 15:43:00,49.3,39.9,29.92,South,180,10.4,10.4,70,0.00,CLR,,0.00,WeatherDisplay:10.37,2013-02-18 23:43:00,
2013-02-18 15:48:00,49.6,40.3,29.92,South,180,9.2,9.2,70,0.00,CLR,,0.00,WeatherDisplay:10.37,2013-02-18 23:48:00,
2013-02-18 15:54:00,49.6,39.9,29.92,South,180,10.4,10.4,69,0.00,CLR,,0.00,WeatherDisplay:10.37,2013-02-18 23:54:00,
2013-02-18 15:59:00,50.4,40.2,29.92,SW,225,6.9,6.9,68,0.00,CLR,,0.00,WeatherDisplay:10.37,2013-02-18 23:59:00,
2013-02-18 16:04:00,50.2,39.6,29.91,SW,225,10.4,10.4,67,0.00,CLR,,0.00,WeatherDisplay:10.37,2013-02-19 00:04:00,
2013-02-18 16:09:00,50.2,39.3,29.91,SW,225,8.1,8.1,66,0.00,CLR,,0.00,WeatherDisplay:10.37,2013-02-19 00:09:00,
2013-02-18 16:14:00,50.0,39.5,29.91,SW,225,11.5,11.5,67,0.00,CLR,,0.00,WeatherDisplay:10.37,2013-02-19 00:14:00,
2013-02-18 16:19:00,49.5,39.0,29.91,South,180,8.1,8.1,67,0.00,CLR,,0.00,WeatherDisplay:10.37,2013-02-19 00:19:00,
2013-02-18 16:24:00,49.1,39.0,29.90,SW,225,15.9,15.9,68,0.00,CLR,,0.00,WeatherDisplay:10.37,2013-02-19 00:24:00,
2013-02-18 16:29:00,49.1,39.0,29.90,SW,225,8.1,8.1,68,0.00,CLR,,0.00,WeatherDisplay:10.37,2013-02-19 00:29:00,
2013-02-18 16:34:00,49.1,39.0,29.90,SW,225,8.1,8.1,68,0.00,CLR,,0.00,WeatherDisplay:10.37,2013-02-19 00:34:00,
2013-02-18 16:39:00,48.9,38.8,29.89,South,180,9.2,9.2,68,0.00,CLR,,0.00,WeatherDisplay:10.37,2013-02-19 00:39:00,
2013-02-18 16:44:00,49.1,39.4,29.89,SE,135,5.8,5.8,69,0.00,CLR,,0.00,WeatherDisplay:10.37,2013-02-19 00:44:00,
2013-02-18 16:49:00,48.9,39.2,29.88,SW,225,5.8,5.8,69,0.00,CLR,,0.00,WeatherDisplay:10.37,2013-02-19 00:49:00,
2013-02-18 16:54:00,48.7,39.0,29.88,SW,225,6.9,6.9,69,0.00,CLR,,0.00,WeatherDisplay:10.37,2013-02-19 00:54:00,
2013-02-18 17:00:00,48.6,39.2,29.88,SW,225,5.8,5.8,70,0.00,CLR,,0.00,WeatherDisplay:10.37,2013-02-19 01:00:00,
2013-02-18 17:05:00,48.2,39.6,29.88,SW,225,3.5,3.5,72,0.00,CLR,,0.00,WeatherDisplay:10.37,2013-02-19 01:05:00,
2013-02-18 17:10:00,48.2,39.9,29.88,SW,225,2.3,2.3,73,0.00,CLR,,0.00,WeatherDisplay:10.37,2013-02-19 01:10:00,
2013-02-18 17:15:00,47.7,39.8,29.88,SW,225,5.8,5.8,74,0.00,CLR,,0.00,WeatherDisplay:10.37,2013-02-19 01:15:00,
2013-02-18 17:20:00,47.3,39.8,29.87,SW,225,5.8,5.8,75,0.00,CLR,,0.00,WeatherDisplay:10.37,2013-02-19 01:20:00,
2013-02-18 17:25:00,47.1,39.6,29.87,SW,225,9.2,9.2,75,0.00,CLR,,0.00,WeatherDisplay:10.37,2013-02-19 01:25:00,
2013-02-18 17:30:00,46.8,39.9,29.87,SW,225,8.1,8.1,77,0.00,CLR,,0.00,WeatherDisplay:10.37,2013-02-19 01:30:00,
2013-02-18 17:35:00,46.6,39.8,29.86,SW,225,10.4,10.4,77,0.00,CLR,,0.00,WeatherDisplay:10.37,2013-02-19 01:35:00,
2013-02-18 17:40:00,46.4,39.6,29.86,SE,135,10.4,10.4,77,0.00,CLR,,0.00,WeatherDisplay:10.37,2013-02-19 01:40:00,
2013-02-18 17:45:00,46.4,39.6,29.86,SW,225,10.4,10.4,77,0.00,CLR,,0.00,WeatherDisplay:10.37,2013-02-19 01:45:00,
2013-02-18 17:50:00,46.2,39.4,29.85,SW,225,10.4,10.4,77,0.00,CLR,,0.00,WeatherDisplay:10.37,2013-02-19 01:50:00,
2013-02-18 17:55:00,46.0,38.9,29.86,SW,225,8.1,8.1,76,0.00,CLR,,0.00,WeatherDisplay:10.37,2013-02-19 01:55:00,
2013-02-18 18:00:00,46.0,39.2,29.86,SW,225,8.1,8.1,77,0.00,CLR,,0.00,WeatherDisplay:10.37,2013-02-19 02:00:00,
2013-02-18 18:05:00,45.7,39.2,29.85,SW,225,9.2,9.2,78,0.00,CLR,,0.00,WeatherDisplay:10.37,2013-02-19 02:05:00,
2013-02-18 18:10:00,45.5,39.0,29.85,SW,225,10.4,10.4,78,0.00,CLR,,0.00,WeatherDisplay:10.37,2013-02-19 02:10:00,
2013-02-18 18:15:00,45.1,39.0,29.85,SW,225,8.1,8.1,79,0.00,CLR,,0.00,WeatherDisplay:10.37,2013-02-19 02:15:00,
2013-02-18 18:20:00,45.1,39.0,29.85,SW,225,9.2,9.2,79,0.00,CLR,,0.00,WeatherDisplay:10.37,2013-02-19 02:20:00,
2013-02-18 18:25:00,45.0,39.2,29.85,SW,225,15.0,15.0,80,0.00,CLR,,0.00,WeatherDisplay:10.37,2013-02-19 02:25:00,
2013-02-18 18:31:00,45.0,39.2,29.85,South,180,15.0,15.0,80,0.00,CLR,,0.00,WeatherDisplay:10.37,2013-02-19 02:31:00,
2013-02-18 18:36:00,45.1,39.0,29.85,South,180,12.7,12.7,79,0.00,CLR,,0.00,WeatherDisplay:10.37,2013-02-19 02:36:00,
2013-02-18 18:41:00,45.0,38.8,29.84,South,180,13.8,13.8,79,0.00,CLR,,0.00,WeatherDisplay:10.37,2013-02-19 02:41:00,
2013-02-18 18:46:00,45.1,38.7,29.84,SW,225,15.0,15.0,78,0.00,CLR,,0.00,WeatherDisplay:10.37,2013-02-19 02:46:00,
2013-02-18 18:51:00,45.1,38.4,29.84,SW,225,15.0,15.0,77,0.00,CLR,,0.00,WeatherDisplay:10.37,2013-02-19 02:51:00,
2013-02-18 18:57:00,45.0,38.2,29.84,SW,225,12.7,12.7,77,0.00,CLR,,0.00,WeatherDisplay:10.37,2013-02-19 02:57:00,
2013-02-18 19:02:00,45.1,38.4,29.84,South,180,12.7,12.7,77,0.00,CLR,,0.00,WeatherDisplay:10.37,2013-02-19 03:02:00,
2013-02-18 19:07:00,45.1,38.0,29.84,South,180,18.4,18.4,76,0.00,CLR,,0.00,WeatherDisplay:10.37,2013-02-19 03:07:00,
2013-02-18 19:12:00,45.1,38.0,29.84,South,180,15.0,15.0,76,0.00,CLR,,0.00,WeatherDisplay:10.37,2013-02-19 03:12:00,
2013-02-18 19:17:00,45.0,37.8,29.83,SW,225,15.0,15.0,76,0.00,CLR,,0.00,WeatherDisplay:10.37,2013-02-19 03:17:00,
2013-02-18 19:22:00,45.1,37.7,29.83,South,180,13.8,13.8,75,0.00,CLR,,0.00,WeatherDisplay:10.37,2013-02-19 03:22:00,
2013-02-18 19:27:00,45.3,37.2,29.83,SW,225,18.4,18.4,73,0.00,CLR,,0.00,WeatherDisplay:10.37,2013-02-19 03:27:00,
2013-02-18 19:32:00,45.1,37.7,29.83,SW,225,19.6,19.6,75,0.00,CLR,,0.00,WeatherDisplay:10.37,2013-02-19 03:32:00,
2013-02-18 19:37:00,44.1,38.3,29.83,SW,225,24.2,24.2,80,0.00,CLR,,0.00,WeatherDisplay:10.37,2013-02-19 03:37:00,
2013-02-18 19:59:00,43.0,39.4,29.83,SW,225,12.7,12.7,87,0.00,CLR,,0.00,WeatherDisplay:10.37,2013-02-19 03:59:00,
2013-02-18 20:04:00,43.0,39.7,29.82,SW,225,13.8,13.8,88,0.01,RA,,0.01,WeatherDisplay:10.37,2013-02-19 04:04:00,
2013-02-18 20:09:00,42.8,39.8,29.82,SW,225,12.1,12.1,89,0.01,RA,,0.01,WeatherDisplay:10.37,2013-02-19 04:09:00,
2013-02-18 20:14:00,42.8,40.1,29.82,SW,225,11.5,11.5,90,0.01,CLR,,0.01,WeatherDisplay:10.37,2013-02-19 04:14:00,
2013-02-18 20:19:00,42.8,40.1,29.81,SSW,202,12.7,12.7,90,0.01,CLR,,0.01,WeatherDisplay:10.37,2013-02-19 04:19:00,
2013-02-18 20:24:00,42.6,40.2,29.81,SW,225,12.7,12.7,91,0.01,CLR,,0.01,WeatherDisplay:10.37,2013-02-19 04:24:00,
2013-02-18 20:29:00,42.6,39.9,29.81,SW,225,8.1,8.1,90,0.01,CLR,,0.01,WeatherDisplay:10.37,2013-02-19 04:29:00,
2013-02-18 20:34:00,42.6,39.9,29.81,SSW,202,10.4,10.4,90,0.01,CLR,,0.01,WeatherDisplay:10.37,2013-02-19 04:34:00,
2013-02-18 20:39:00,42.6,39.9,29.81,South,180,6.9,6.9,90,0.01,CLR,,0.01,WeatherDisplay:10.37,2013-02-19 04:39:00,
2013-02-18 20:44:00,42.6,39.9,29.81,SSW,202,6.9,6.9,90,0.01,CLR,,0.01,WeatherDisplay:10.37,2013-02-19 04:44:00,
2013-02-18 20:49:00,42.6,39.9,29.81,South,180,8.1,8.1,90,0.01,CLR,,0.01,WeatherDisplay:10.37,2013-02-19 04:49:00,
2013-02-18 20:54:00,42.6,39.9,29.80,SW,225,9.2,9.2,90,0.01,CLR,,0.01,WeatherDisplay:10.37,2013-02-19 04:54:00,
2013-02-18 20:59:00,42.6,39.9,29.80,South,180,8.1,8.1,90,0.01,CLR,,0.01,WeatherDisplay:10.37,2013-02-19 04:59:00,
2013-02-18 21:00:00,42.6,39.9,29.80,SW,225,8.1,8.1,90,0.01,CLR,,0.01,WeatherDisplay:10.37,2013-02-19 05:00:00,
2013-02-18 21:01:00,42.6,39.9,29.80,South,180,6.9,6.9,90,0.00,CLR,,0.01,WeatherDisplay:10.37,2013-02-19 05:01:00,
2013-02-18 21:06:00,42.6,39.9,29.80,South,180,4.6,4.6,90,0.00,CLR,,0.01,WeatherDisplay:10.37,2013-02-19 05:06:00,
2013-02-18 21:11:00,42.3,39.8,29.80,SE,135,3.5,3.5,91,0.00,CLR,,0.01,WeatherDisplay:10.37,2013-02-19 05:11:00,
2013-02-18 21:16:00,42.3,39.8,29.80,South,180,4.6,4.6,91,0.00,CLR,,0.01,WeatherDisplay:10.37,2013-02-19 05:16:00,
2013-02-18 21:21:00,42.3,39.8,29.80,South,180,8.3,8.3,91,0.00,CLR,,0.01,WeatherDisplay:10.37,2013-02-19 05:21:00,
2013-02-18 21:26:00,42.3,39.8,29.80,SE,135,8.1,8.1,91,0.00,CLR,,0.01,WeatherDisplay:10.37,2013-02-19 05:26:00,
2013-02-18 21:31:00,42.3,39.8,29.80,SE,135,4.6,4.6,91,0.00,CLR,,0.01,WeatherDisplay:10.37,2013-02-19 05:31:00,
2013-02-18 21:36:00,42.3,39.8,29.79,South,180,6.9,6.9,91,0.00,CLR,,0.01,WeatherDisplay:10.37,2013-02-19 05:36:00,
2013-02-18 21:41:00,42.3,39.8,29.80,SW,225,5.8,5.8,91,0.00,CLR,,0.01,WeatherDisplay:10.37,2013-02-19 05:41:00,
2013-02-18 21:46:00,42.3,39.8,29.79,SSE,158,5.8,5.8,91,0.01,RA,,0.02,WeatherDisplay:10.37,2013-02-19 05:46:00,
2013-02-18 21:51:00,42.1,39.9,29.79,South,180,5.8,5.8,92,0.01,RA,,0.02,WeatherDisplay:10.37,2013-02-19 05:51:00,
2013-02-18 21:56:00,41.9,39.7,29.79,South,180,8.1,8.1,92,0.01,,,0.02,WeatherDisplay:10.37,2013-02-19 05:56:00,
2013-02-18 22:01:00,41.7,39.6,29.78,South,180,8.1,8.1,92,0.01,CLR,,0.02,WeatherDisplay:10.37,2013-02-19 06:01:00,
2013-02-18 22:06:00,41.7,39.6,29.78,South,180,11.5,11.5,92,0.01,CLR,,0.02,WeatherDisplay:10.37,2013-02-19 06:06:00,
2013-02-18 22:11:00,41.7,39.6,29.78,SE,135,6.9,8.3,92,0.01,CLR,,0.02,WeatherDisplay:10.37,2013-02-19 06:11:00,
2013-02-18 22:16:00,41.7,39.6,29.77,South,180,10.4,10.4,92,0.01,CLR,,0.02,WeatherDisplay:10.37,2013-02-19 06:16:00,
2013-02-18 22:21:00,41.7,39.6,29.77,South,180,6.9,6.9,92,0.01,CLR,,0.02,WeatherDisplay:10.37,2013-02-19 06:21:00,
2013-02-18 22:26:00,41.7,39.6,29.77,South,180,8.1,8.1,92,0.01,CLR,,0.02,WeatherDisplay:10.37,2013-02-19 06:26:00,
2013-02-18 22:31:00,41.7,39.6,29.77,South,180,11.5,11.5,92,0.01,CLR,,0.02,WeatherDisplay:10.37,2013-02-19 06:31:00,
2013-02-18 22:36:00,41.5,39.1,29.76,South,180,10.4,10.4,91,0.01,CLR,,0.02,WeatherDisplay:10.37,2013-02-19 06:36:00,
2013-02-18 22:41:00,41.5,39.1,29.76,South,180,10.4,10.4,91,0.01,CLR,,0.02,WeatherDisplay:10.37,2013-02-19 06:41:00,
2013-02-18 22:46:00,41.5,39.1,29.76,South,180,8.1,8.1,91,0.00,CLR,,0.02,WeatherDisplay:10.37,2013-02-19 06:46:00,
2013-02-18 22:51:00,41.4,38.9,29.75,SSE,158,8.1,8.1,91,0.00,CLR,,0.02,WeatherDisplay:10.37,2013-02-19 06:51:00,
2013-02-18 22:56:00,41.4,38.9,29.75,South,180,10.4,10.4,91,0.00,CLR,,0.02,WeatherDisplay:10.37,2013-02-19 06:56:00,
2013-02-18 23:01:00,41.4,38.9,29.75,South,180,11.5,11.5,91,0.00,CLR,,0.02,WeatherDisplay:10.37,2013-02-19 07:01:00,
2013-02-18 23:06:00,41.5,39.1,29.75,SE,135,8.1,8.1,91,0.00,CLR,,0.02,WeatherDisplay:10.37,2013-02-19 07:06:00,
2013-02-18 23:11:00,41.5,39.1,29.75,South,180,8.1,8.1,91,0.00,CLR,,0.02,WeatherDisplay:10.37,2013-02-19 07:11:00,
2013-02-18 23:16:00,41.5,38.8,29.75,South,180,8.1,8.1,90,0.00,CLR,,0.02,WeatherDisplay:10.37,2013-02-19 07:16:00,
2013-02-18 23:21:00,41.5,39.1,29.74,South,180,10.4,10.4,91,0.00,CLR,,0.02,WeatherDisplay:10.37,2013-02-19 07:21:00,
2013-02-18 23:26:00,41.4,38.9,29.74,SE,135,8.1,8.1,91,0.00,CLR,,0.02,WeatherDisplay:10.37,2013-02-19 07:26:00,
2013-02-18 23:31:00,41.4,39.2,29.74,SSE,158,8.1,8.1,92,0.00,CLR,,0.02,WeatherDisplay:10.37,2013-02-19 07:31:00,
2013-02-18 23:36:00,41.2,39.0,29.72,SE,135,5.8,5.8,92,0.00,CLR,,0.02,WeatherDisplay:10.37,2013-02-19 07:36:00,
2013-02-18 23:41:00,41.0,39.1,29.72,SE,135,9.2,9.2,93,0.00,CLR,,0.02,WeatherDisplay:10.37,2013-02-19 07:41:00,
2013-02-18 23:46:00,41.0,39.1,29.72,South,180,6.9,6.9,93,0.00,CLR,,0.02,WeatherDisplay:10.37,2013-02-19 07:46:00,
2013-02-18 23:51:00,41.0,39.1,29.72,SW,225,8.1,8.1,93,0.00,CLR,,0.02,WeatherDisplay:10.37,2013-02-19 07:51:00,
2013-02-18 23:56:00,41.0,39.1,29.72,South,180,7.6,7.6,93,0.00,CLR,,0.02,WeatherDisplay:10.37,2013-02-19 07:56:00,